Carl, Iowa
Current Conditions -  °F | °C
As of 7:30 AM on Wednesday 22 Oct 2014 (Local Time) from KCSQ Reporting Station
Overcast Overcast  
Wind Chill:   Ceiling: 3900
Heat Index:   Visibility: 10mi
Dew Point:   Wind: 13mph
Humidity: 76%   Direction: 140°SE
Pressure: 30.19"   Gusts: 20mph
Location:  41.0285°N, 94.7568°W
Report Text: KCSQ 221230Z AUTO 14011G17KT 10SM OVC039 09/05 A3019 RMK AO2
Loading
Personal Weather Stations






























Interactive Weather Map
Tropical Storm Tracking
New forecast layout! Learn more

10-Day Weather Forecast

Advertisements
Track Severe Weather on mobile